Time;durP1;ratioP1;P1;durP2;ratioP2;P2;SDS_P1;SDS_P2;PMS_P1;PMS_P2;Temp;Humidity;BMP_temperature;BMP_pressure;BME280_temperature;BME280_humidity;BME280_pressure;Samples;Min_cycle;Max_cycle;Signal;HPM_P1;HPM_P2
2022/11/21 00:01:16;;;;;;;2.85;1.90;;;-0.70;99.90;;;;;;4907764;29;20371;-66
2022/11/21 00:03:43;;;;;;;4.10;2.53;;;-0.60;99.90;;;;;;4905806;29;20395;-63
2022/11/21 00:06:10;;;;;;;4.78;2.65;;;-0.60;99.90;;;;;;4907577;29;20135;-63
2022/11/21 00:08:37;;;;;;;5.20;3.13;;;-0.70;99.90;;;;;;4906717;29;20052;-63
2022/11/21 00:11:03;;;;;;;5.25;3.10;;;-0.70;99.90;;;;;;4909228;29;20483;-65
2022/11/21 00:13:30;;;;;;;5.63;3.53;;;-0.80;99.90;;;;;;4905464;29;20136;-69
2022/11/21 00:16:06;;;;;;;6.75;3.85;;;-0.90;99.90;;;;;;4903576;29;20071;-63
2022/11/21 00:18:33;;;;;;;5.63;3.63;;;-0.90;99.90;;;;;;4904751;29;20048;-71
2022/11/21 00:21:06;;;;;;;5.00;3.72;;;-1.00;99.90;;;;;;4903394;29;20045;-63
2022/11/21 00:23:33;;;;;;;4.43;3.28;;;-1.10;99.90;;;;;;4909034;29;20111;-68
2022/11/21 00:26:07;;;;;;;4.93;3.28;;;-1.20;99.90;;;;;;4912645;29;20051;-63
2022/11/21 00:28:34;;;;;;;4.75;3.53;;;-1.30;99.90;;;;;;4907265;29;20060;-65
2022/11/21 00:31:02;;;;;;;4.90;3.92;;;-1.40;99.90;;;;;;4902834;29;20854;-66
2022/11/21 00:33:30;;;;;;;7.28;3.25;;;-1.40;99.90;;;;;;4904457;29;20052;-67
2022/11/21 00:35:57;;;;;;;6.43;4.38;;;-1.40;99.90;;;;;;4906765;29;20664;-64
2022/11/21 00:38:25;;;;;;;6.20;4.63;;;-1.40;99.90;;;;;;4905924;29;20059;-65
2022/11/21 00:40:52;;;;;;;6.15;4.10;;;-1.40;99.90;;;;;;4898266;29;20128;-65
2022/11/21 00:43:19;;;;;;;5.22;3.35;;;-1.30;99.90;;;;;;4902377;29;20172;-67
2022/11/21 00:45:46;;;;;;;7.45;5.05;;;-1.30;99.90;;;;;;4903510;29;20383;-67
2022/11/21 00:48:13;;;;;;;9.23;5.40;;;-1.20;99.90;;;;;;4903038;29;20052;-65
2022/11/21 00:50:40;;;;;;;5.95;4.72;;;-1.20;99.90;;;;;;4891628;29;20416;-65
2022/11/21 00:53:07;;;;;;;6.50;4.47;;;-1.20;99.90;;;;;;4902245;29;20071;-66
2022/11/21 00:55:36;;;;;;;8.82;4.97;;;-1.20;99.90;;;;;;4897416;29;20053;-64
2022/11/21 00:58:03;;;;;;;6.75;4.55;;;-1.20;99.90;;;;;;4905884;29;20127;-64
2022/11/21 01:00:29;;;;;;;9.65;5.43;;;-1.20;99.90;;;;;;4900737;29;20143;-68
2022/11/21 01:02:56;;;;;;;7.70;5.32;;;-1.20;99.90;;;;;;4903037;29;20079;-65
2022/11/21 01:05:23;;;;;;;7.85;5.10;;;-1.10;99.90;;;;;;4902773;29;20052;-63
2022/11/21 01:07:50;;;;;;;7.70;5.25;;;-1.10;99.90;;;;;;4903635;29;20048;-66
2022/11/21 01:10:17;;;;;;;7.88;5.82;;;-1.10;99.90;;;;;;4904684;29;20086;-64
2022/11/21 01:12:44;;;;;;;9.75;6.65;;;-1.00;99.90;;;;;;4902773;29;20167;-64
2022/11/21 01:15:11;;;;;;;9.23;5.95;;;-1.00;99.90;;;;;;4895911;29;20495;-66
2022/11/21 01:17:38;;;;;;;10.00;6.68;;;-1.00;99.90;;;;;;4903665;29;20075;-63
2022/11/21 01:20:06;;;;;;;10.85;7.30;;;-1.00;99.90;;;;;;4905444;29;20436;-63
2022/11/21 01:22:33;;;;;;;8.90;6.78;;;-0.90;99.90;;;;;;4905232;29;20162;-65
2022/11/21 01:24:59;;;;;;;9.02;5.63;;;-0.90;99.90;;;;;;4911632;29;20172;-64
2022/11/21 01:27:26;;;;;;;10.32;7.13;;;-0.80;99.90;;;;;;4901412;29;20436;-67
2022/11/21 01:29:53;;;;;;;9.57;6.50;;;-0.80;99.90;;;;;;4910450;29;20048;-65
2022/11/21 01:32:20;;;;;;;9.45;6.65;;;-0.80;99.90;;;;;;4906629;29;20150;-64
2022/11/21 01:34:47;;;;;;;12.07;8.00;;;-0.70;99.90;;;;;;4908837;29;20056;-65
2022/11/21 01:37:14;;;;;;;12.23;7.05;;;-0.70;99.90;;;;;;4906921;29;20396;-63
2022/11/21 01:39:41;;;;;;;10.68;6.75;;;-0.70;99.90;;;;;;4885596;29;20048;-65
2022/11/21 01:42:11;;;;;;;8.20;5.60;;;-0.70;99.90;;;;;;4904451;29;20127;-65
2022/11/21 01:45:24;;;;;;;12.50;6.93;;;-0.70;99.90;;;;;;4905623;29;20139;-66
2022/11/21 01:47:51;;;;;;;8.20;5.70;;;-0.70;99.90;;;;;;4902031;29;20048;-64
2022/11/21 01:50:17;;;;;;;8.68;5.63;;;-0.70;99.90;;;;;;4902659;29;20127;-64
2022/11/21 01:52:44;;;;;;;8.05;4.88;;;-0.70;99.90;;;;;;4902062;29;20108;-67
2022/11/21 01:55:11;;;;;;;9.00;5.35;;;-0.70;99.90;;;;;;4903434;29;20402;-65
2022/11/21 01:57:44;;;;;;;8.68;5.78;;;-0.60;99.90;;;;;;4895970;29;20091;-64
2022/11/21 02:00:12;;;;;;;11.07;6.68;;;-0.60;99.90;;;;;;4903353;29;20403;-64
2022/11/21 02:02:46;;;;;;;7.63;5.65;;;-0.60;99.90;;;;;;4903278;29;20066;-69
2022/11/21 02:05:24;;;;;;;8.85;5.28;;;-0.60;99.90;;;;;;4904156;29;20060;-69
2022/11/21 02:07:56;;;;;;;9.52;6.25;;;-0.60;99.90;;;;;;4900002;29;20060;-64
2022/11/21 02:10:23;;;;;;;9.35;5.95;;;-0.60;99.90;;;;;;4904660;29;20055;-66
2022/11/21 02:12:52;;;;;;;10.93;6.30;;;-0.60;99.90;;;;;;4904993;29;20127;-63
2022/11/21 02:15:21;;;;;;;8.65;6.65;;;-0.60;99.90;;;;;;4902952;29;20076;-68
2022/11/21 02:17:49;;;;;;;8.38;5.10;;;-0.50;99.90;;;;;;4907301;29;20055;-65
2022/11/21 02:20:22;;;;;;;8.55;5.75;;;-0.50;99.90;;;;;;4904796;29;20051;-68
2022/11/21 02:23:00;;;;;;;9.40;5.97;;;-0.50;99.90;;;;;;4891790;29;20142;-64
2022/11/21 02:25:40;;;;;;;8.68;5.30;;;-0.60;99.90;;;;;;4902510;29;20667;-68
2022/11/21 02:28:19;;;;;;;8.55;5.28;;;-0.50;99.90;;;;;;4902747;29;20048;-64
2022/11/21 02:30:46;;;;;;;8.75;5.40;;;-0.50;99.90;;;;;;4903799;29;20482;-68
2022/11/21 02:33:13;;;;;;;7.05;4.50;;;-0.50;99.90;;;;;;4900366;29;20058;-70
2022/11/21 02:35:41;;;;;;;5.90;4.57;;;-0.50;99.90;;;;;;4900546;29;20060;-68
2022/11/21 02:38:19;;;;;;;7.75;4.82;;;-0.50;99.90;;;;;;4903721;29;20498;-67
2022/11/21 02:40:59;;;;;;;8.75;5.10;;;-0.60;99.90;;;;;;4904881;29;20048;-63
2022/11/21 02:43:39;;;;;;;8.73;5.80;;;-0.60;99.90;;;;;;4905140;29;20459;-65
2022/11/21 02:46:06;;;;;;;9.70;6.20;;;-0.70;99.90;;;;;;4904166;29;20063;-64
2022/11/21 02:48:33;;;;;;;10.80;5.43;;;-0.70;99.90;;;;;;4900655;29;20694;-71
2022/11/21 02:51:00;;;;;;;9.00;6.45;;;-0.70;99.90;;;;;;4900753;29;20139;-71
2022/11/21 02:53:27;;;;;;;9.13;6.93;;;-0.80;99.90;;;;;;4908059;29;20055;-64
2022/11/21 02:55:54;;;;;;;9.00;5.93;;;-0.80;99.90;;;;;;4904374;29;20056;-66
2022/11/21 02:58:22;;;;;;;7.80;5.47;;;-0.90;99.90;;;;;;4904221;29;20486;-72
2022/11/21 03:00:49;;;;;;;10.15;5.80;;;-0.90;99.90;;;;;;4905317;29;20051;-68
2022/11/21 03:03:16;;;;;;;8.00;5.25;;;-0.90;99.90;;;;;;4900829;29;20048;-65
2022/11/21 03:05:43;;;;;;;6.82;4.70;;;-1.00;99.90;;;;;;4901785;29;20051;-69
2022/11/21 03:08:10;;;;;;;7.32;5.00;;;-1.00;99.90;;;;;;4901876;29;20052;-66
2022/11/21 03:10:37;;;;;;;6.43;5.05;;;-1.00;99.90;;;;;;4902485;29;20055;-70
2022/11/21 03:13:04;;;;;;;8.38;5.13;;;-1.00;99.90;;;;;;4901872;29;20048;-68
2022/11/21 03:15:33;;;;;;;8.70;5.28;;;-1.10;99.90;;;;;;4898953;29;20052;-67
2022/11/21 03:18:01;;;;;;;6.20;4.45;;;-1.10;99.90;;;;;;4904743;29;20143;-66
2022/11/21 03:20:30;;;;;;;8.80;4.90;;;-1.10;99.90;;;;;;4901670;29;20147;-67
2022/11/21 03:22:57;;;;;;;7.55;5.93;;;-1.10;99.90;;;;;;4913469;29;20048;-64
2022/11/21 03:25:24;;;;;;;7.18;4.00;;;-1.10;99.90;;;;;;4902905;29;20078;-67
2022/11/21 03:27:52;;;;;;;9.15;5.35;;;-1.10;99.90;;;;;;4907876;29;20063;-67
2022/11/21 03:30:20;;;;;;;5.97;3.67;;;-1.10;99.90;;;;;;4911346;29;20133;-64
2022/11/21 03:32:48;;;;;;;7.65;5.45;;;-1.10;99.90;;;;;;4908360;29;20536;-68
2022/11/21 03:35:15;;;;;;;6.75;3.80;;;-1.20;99.90;;;;;;4904937;29;20119;-67
2022/11/21 03:37:42;;;;;;;7.82;4.63;;;-1.20;99.90;;;;;;4907047;29;20131;-66
2022/11/21 03:40:09;;;;;;;7.63;4.68;;;-1.20;99.90;;;;;;4904327;29;20095;-67
2022/11/21 03:42:36;;;;;;;9.38;5.57;;;-1.20;99.90;;;;;;4907261;29;20449;-64
2022/11/21 03:45:04;;;;;;;7.45;4.60;;;-1.20;99.90;;;;;;4908347;29;20103;-70
2022/11/21 03:47:32;;;;;;;7.97;5.97;;;-1.20;99.90;;;;;;4902563;29;20410;-66
2022/11/21 03:49:59;;;;;;;5.70;4.00;;;-1.20;99.90;;;;;;4909107;29;20048;-67
2022/11/21 03:52:26;;;;;;;5.13;4.35;;;-1.20;99.90;;;;;;4898057;29;20052;-67
2022/11/21 03:54:53;;;;;;;7.75;5.65;;;-1.10;99.90;;;;;;4910427;29;20164;-65
2022/11/21 03:57:19;;;;;;;8.07;4.85;;;-1.10;99.90;;;;;;4906438;29;20066;-67
2022/11/21 03:59:46;;;;;;;8.13;4.97;;;-1.10;99.90;;;;;;4906298;29;20099;-66
2022/11/21 04:02:13;;;;;;;6.22;4.50;;;-1.10;99.90;;;;;;4906072;29;20056;-66
2022/11/21 04:04:40;;;;;;;6.63;5.07;;;-1.00;99.90;;;;;;4907764;29;20052;-67
2022/11/21 04:07:07;;;;;;;5.82;3.83;;;-1.00;99.90;;;;;;4906498;29;20135;-72
2022/11/21 04:09:34;;;;;;;8.25;5.15;;;-1.00;99.90;;;;;;4904709;29;20127;-68
2022/11/21 04:12:01;;;;;;;6.35;4.95;;;-0.90;99.90;;;;;;4908289;29;20131;-65
2022/11/21 04:14:33;;;;;;;8.55;5.53;;;-0.90;99.90;;;;;;4907202;29;20087;-67
2022/11/21 04:17:01;;;;;;;6.78;4.82;;;-0.80;99.90;;;;;;4907354;29;21240;-67
2022/11/21 04:19:27;;;;;;;8.45;5.60;;;-0.80;99.90;;;;;;4905370;29;20056;-65
2022/11/21 04:21:54;;;;;;;7.28;5.18;;;-0.70;99.90;;;;;;4904709;29;20079;-65
2022/11/21 04:24:21;;;;;;;7.75;5.13;;;-0.70;99.90;;;;;;4908552;29;20446;-64
2022/11/21 04:26:48;;;;;;;6.65;4.72;;;-0.70;99.90;;;;;;4904856;29;20624;-71
2022/11/21 04:29:15;;;;;;;8.25;5.72;;;-0.70;99.90;;;;;;4907403;29;20048;-67
2022/11/21 04:31:42;;;;;;;8.15;5.30;;;-0.70;99.90;;;;;;4904596;29;21841;-65
2022/11/21 04:34:09;;;;;;;8.55;6.40;;;-0.70;99.90;;;;;;4907365;29;20059;-68
2022/11/21 04:36:36;;;;;;;12.45;5.95;;;-0.70;99.90;;;;;;4906064;29;20135;-65
2022/11/21 04:39:03;;;;;;;10.77;6.60;;;-0.70;99.90;;;;;;4904451;29;20052;-65
2022/11/21 04:41:30;;;;;;;11.52;7.05;;;-0.70;99.90;;;;;;4905397;29;20040;-67
2022/11/21 04:43:57;;;;;;;9.57;5.75;;;-0.80;99.90;;;;;;4906035;29;20080;-65
2022/11/21 04:46:24;;;;;;;10.35;5.60;;;-0.80;99.90;;;;;;4905017;29;20429;-64
2022/11/21 04:48:51;;;;;;;10.18;5.32;;;-0.90;99.90;;;;;;4903629;29;20128;-68
2022/11/21 04:51:17;;;;;;;9.43;5.85;;;-0.80;99.90;;;;;;4900562;29;20074;-65
2022/11/21 04:53:44;;;;;;;8.88;5.38;;;-0.80;99.90;;;;;;4908259;29;20162;-66
2022/11/21 04:56:15;;;;;;;7.70;4.45;;;-0.80;99.90;;;;;;4902964;29;20046;-64
2022/11/21 04:58:43;;;;;;;7.65;5.03;;;-0.70;99.90;;;;;;4902652;29;20496;-64
2022/11/21 05:01:10;;;;;;;7.43;4.20;;;-0.60;99.90;;;;;;4907991;29;20083;-65
2022/11/21 05:03:37;;;;;;;5.57;4.35;;;-0.60;99.90;;;;;;4903770;29;20515;-65
2022/11/21 05:06:04;;;;;;;6.47;4.40;;;-0.60;99.90;;;;;;4906121;29;20103;-68
2022/11/21 05:08:31;;;;;;;6.82;4.78;;;-0.60;99.90;;;;;;4904138;29;20872;-68
2022/11/21 05:13:43;;;;;;;12.52;8.02;;;-0.40;99.90;;;;;;4903313;29;20410;-66
2022/11/21 05:16:10;;;;;;;12.00;9.50;;;-0.40;99.90;;;;;;4901120;29;20047;-66
2022/11/21 05:18:37;;;;;;;12.07;8.57;;;-0.30;99.90;;;;;;4906356;29;20143;-65
2022/11/21 05:21:04;;;;;;;13.43;9.65;;;-0.20;99.90;;;;;;4910380;29;20633;-66
2022/11/21 05:23:31;;;;;;;19.98;10.48;;;-0.20;99.90;;;;;;4898192;29;20048;-69
2022/11/21 05:25:58;;;;;;;17.95;10.60;;;-0.20;99.90;;;;;;4907786;29;20151;-65
2022/11/21 05:28:26;;;;;;;13.23;9.13;;;-0.10;99.90;;;;;;4904789;29;20071;-66
2022/11/21 05:30:52;;;;;;;15.48;9.85;;;-0.10;99.90;;;;;;4901442;29;20107;-64
2022/11/21 05:33:19;;;;;;;14.60;8.73;;;-0.10;99.90;;;;;;4906666;29;20051;-68
2022/11/21 05:35:46;;;;;;;13.68;10.25;;;0.00;99.90;;;;;;4902169;29;20783;-64
2022/11/21 05:38:13;;;;;;;15.52;11.07;;;-0.10;99.90;;;;;;4901720;29;20054;-65
2022/11/21 05:40:40;;;;;;;17.95;12.32;;;0.00;99.90;;;;;;4904426;29;20479;-67
2022/11/21 05:45:55;;;;;;;19.70;12.45;;;0.00;99.90;;;;;;4903544;29;20155;-69
2022/11/21 05:48:22;;;;;;;20.95;14.00;;;0.10;99.90;;;;;;4904491;29;20499;-63
2022/11/21 05:50:49;;;;;;;23.65;15.48;;;0.10;99.90;;;;;;4905669;29;20082;-64
2022/11/21 05:53:17;;;;;;;25.40;17.27;;;0.10;99.90;;;;;;4904992;29;20051;-63
2022/11/21 05:55:44;;;;;;;27.98;16.65;;;0.10;99.90;;;;;;4903372;29;20500;-63
2022/11/21 05:58:11;;;;;;;26.77;16.70;;;0.10;99.90;;;;;;4901871;29;20040;-62
2022/11/21 06:00:38;;;;;;;24.40;16.83;;;0.10;99.90;;;;;;4902860;29;20048;-65
2022/11/21 06:06:14;;;;;;;26.70;17.83;;;0.10;99.90;;;;;;4899993;29;20139;-63
2022/11/21 06:08:46;;;;;;;25.23;17.55;;;0.10;99.90;;;;;;4901208;29;20204;-64
2022/11/21 06:11:14;;;;;;;26.25;18.13;;;0.10;99.90;;;;;;4904275;29;20115;-65
2022/11/21 06:13:42;;;;;;;26.08;16.40;;;0.10;99.90;;;;;;4902681;29;20467;-65
2022/11/21 06:16:11;;;;;;;29.52;18.08;;;0.10;99.90;;;;;;4901293;29;20147;-65
2022/11/21 06:18:41;;;;;;;27.85;18.02;;;0.10;99.90;;;;;;4900430;29;20747;-64
2022/11/21 06:21:16;;;;;;;25.33;17.75;;;0.00;99.90;;;;;;4900752;29;20139;-63
2022/11/21 06:23:43;;;;;;;24.35;17.08;;;0.00;99.90;;;;;;4899648;29;20063;-63
2022/11/21 06:26:13;;;;;;;26.50;17.10;;;0.00;99.90;;;;;;4904152;29;20139;-63
2022/11/21 06:28:41;;;;;;;23.92;17.38;;;0.00;99.90;;;;;;4901636;29;20056;-65
2022/11/21 06:31:14;;;;;;;27.35;18.38;;;0.00;99.90;;;;;;4900447;29;20062;-64
2022/11/21 06:33:42;;;;;;;28.38;17.10;;;-0.10;99.90;;;;;;4898825;29;20142;-64
2022/11/21 06:36:11;;;;;;;26.48;16.38;;;-0.10;99.90;;;;;;4888604;29;20056;-65
2022/11/21 06:38:40;;;;;;;23.15;17.23;;;-0.10;99.90;;;;;;4901327;29;20044;-67
2022/11/21 06:41:12;;;;;;;25.65;16.38;;;-0.10;99.90;;;;;;4902697;29;20459;-64
2022/11/21 06:43:39;;;;;;;28.83;18.70;;;-0.10;99.90;;;;;;4898710;29;20056;-64
2022/11/21 06:46:07;;;;;;;25.27;17.17;;;-0.10;99.90;;;;;;4904071;29;20159;-64
2022/11/21 06:48:35;;;;;;;30.25;18.45;;;-0.10;99.90;;;;;;4896479;29;20048;-68
2022/11/21 06:51:14;;;;;;;28.55;18.08;;;-0.10;99.90;;;;;;4903739;29;20529;-64
2022/11/21 06:53:41;;;;;;;25.60;18.30;;;-0.10;99.90;;;;;;4901848;29;20602;-64
2022/11/21 06:56:08;;;;;;;24.98;18.70;;;-0.10;99.90;;;;;;4903411;29;20056;-64
2022/11/21 06:58:36;;;;;;;28.58;19.77;;;-0.10;99.90;;;;;;4903135;29;20083;-67
2022/11/21 07:01:09;;;;;;;29.55;20.50;;;-0.10;99.90;;;;;;4901545;29;20052;-63
2022/11/21 07:03:36;;;;;;;30.45;18.90;;;0.00;99.90;;;;;;4898943;29;20098;-64
2022/11/21 07:06:04;;;;;;;33.88;22.17;;;0.00;99.90;;;;;;4902748;29;20052;-63
2022/11/21 07:08:34;;;;;;;26.38;18.98;;;0.10;99.90;;;;;;4900870;29;20499;-69
2022/11/21 07:11:11;;;;;;;30.23;21.48;;;0.10;99.90;;;;;;4904005;29;20151;-65
2022/11/21 07:13:54;;;;;;;30.52;19.35;;;0.10;99.90;;;;;;4905810;29;20113;-63
2022/11/21 07:16:21;;;;;;;29.80;19.48;;;0.20;99.90;;;;;;4903335;29;20054;-68
2022/11/21 07:18:48;;;;;;;27.67;18.45;;;0.10;99.90;;;;;;4893535;29;20466;-64
2022/11/21 07:21:15;;;;;;;29.65;19.90;;;0.20;99.90;;;;;;4904788;29;20062;-69
2022/11/21 07:23:41;;;;;;;27.92;18.83;;;0.20;99.90;;;;;;4898652;29;20143;-63
2022/11/21 07:26:09;;;;;;;24.90;17.95;;;0.20;99.90;;;;;;4898829;29;20051;-64
2022/11/21 07:28:36;;;;;;;27.83;18.27;;;0.20;99.90;;;;;;4899670;29;20091;-67
2022/11/21 07:31:03;;;;;;;27.08;17.20;;;0.20;99.90;;;;;;4900368;29;20135;-70
2022/11/21 07:33:38;;;;;;;25.90;18.20;;;0.20;99.90;;;;;;4896915;29;20048;-67
2022/11/21 07:36:06;;;;;;;23.63;15.80;;;0.30;99.90;;;;;;4898381;29;20083;-65
2022/11/21 07:38:33;;;;;;;24.75;15.70;;;0.30;99.90;;;;;;4899882;29;20111;-64
2022/11/21 07:41:00;;;;;;;25.90;17.13;;;0.30;99.90;;;;;;4900980;29;20099;-66
2022/11/21 07:43:27;;;;;;;24.90;17.17;;;0.30;99.90;;;;;;4893805;29;20207;-63
2022/11/21 07:45:55;;;;;;;22.13;16.35;;;0.30;99.90;;;;;;4902193;29;20170;-66
2022/11/21 07:48:21;;;;;;;24.23;16.10;;;0.40;99.90;;;;;;4902687;29;20223;-65
2022/11/21 07:50:48;;;;;;;24.85;16.75;;;0.40;99.90;;;;;;4903288;29;20059;-64
2022/11/21 07:53:15;;;;;;;25.63;16.30;;;0.40;99.90;;;;;;4904969;29;20044;-64
2022/11/21 07:55:42;;;;;;;23.83;16.67;;;0.50;99.90;;;;;;4903161;29;25615;-64
2022/11/21 07:58:12;;;;;;;25.05;16.38;;;0.50;99.90;;;;;;4905213;29;20087;-63
2022/11/21 08:00:41;;;;;;;23.00;16.38;;;0.50;99.90;;;;;;4901774;29;20395;-63
2022/11/21 08:03:10;;;;;;;23.58;16.60;;;0.50;99.90;;;;;;4903059;29;20070;-63
2022/11/21 08:05:40;;;;;;;24.13;15.43;;;0.50;99.90;;;;;;4906452;29;20056;-64
2022/11/21 08:08:08;;;;;;;25.52;15.15;;;0.60;99.90;;;;;;4903491;29;20147;-65
2022/11/21 08:10:40;;;;;;;20.85;14.45;;;0.50;99.90;;;;;;4903600;29;20054;-67
2022/11/21 08:13:08;;;;;;;22.45;14.90;;;0.50;99.90;;;;;;4907781;29;20115;-65
2022/11/21 08:15:35;;;;;;;20.77;14.80;;;0.50;99.90;;;;;;4884803;29;20076;-65
2022/11/21 08:18:19;;;;;;;22.63;15.52;;;0.50;99.90;;;;;;4905904;29;20144;-67
2022/11/21 08:20:46;;;;;;;21.42;14.00;;;0.60;99.90;;;;;;4909477;29;20513;-65
2022/11/21 08:23:14;;;;;;;19.63;12.98;;;0.60;99.90;;;;;;4899198;29;20108;-64
2022/11/21 08:25:41;;;;;;;22.98;13.95;;;0.60;99.90;;;;;;4904629;29;20387;-65
2022/11/21 08:28:10;;;;;;;22.25;14.60;;;0.70;99.90;;;;;;4891419;29;20502;-64
2022/11/21 08:30:38;;;;;;;22.77;15.10;;;0.70;99.90;;;;;;4905388;29;20680;-66
2022/11/21 08:33:05;;;;;;;17.33;11.18;;;0.70;99.90;;;;;;4900688;29;20159;-66
2022/11/21 08:35:36;;;;;;;16.88;12.30;;;0.80;99.90;;;;;;4898181;29;20455;-67
2022/11/21 08:38:03;;;;;;;18.33;11.80;;;0.80;99.90;;;;;;4904438;29;20119;-69
2022/11/21 08:40:31;;;;;;;16.25;10.15;;;0.90;99.90;;;;;;4903957;29;20481;-66
2022/11/21 08:43:03;;;;;;;12.88;8.88;;;1.00;99.90;;;;;;4903012;29;20083;-67
2022/11/21 08:45:31;;;;;;;15.85;9.30;;;1.00;99.90;;;;;;4902540;29;20068;-68
2022/11/21 08:47:58;;;;;;;13.02;8.02;;;1.30;99.90;;;;;;4902943;29;20048;-65
2022/11/21 08:50:26;;;;;;;9.95;8.13;;;1.60;99.90;;;;;;4903522;29;20048;-65
2022/11/21 08:53:00;;;;;;;7.93;5.40;;;2.00;99.90;;;;;;4904348;29;20063;-66
2022/11/21 08:55:28;;;;;;;7.30;5.57;;;2.20;99.90;;;;;;4897852;29;20055;-64
2022/11/21 08:57:55;;;;;;;4.35;3.63;;;2.10;99.90;;;;;;4905432;29;20085;-68
2022/11/21 09:00:22;;;;;;;8.70;5.43;;;2.00;99.90;;;;;;4903180;29;20131;-64
2022/11/21 09:02:49;;;;;;;3.58;3.13;;;2.00;99.90;;;;;;4901792;29;20422;-67
2022/11/21 09:05:16;;;;;;;3.35;3.05;;;1.90;99.90;;;;;;4902160;29;20048;-70
2022/11/21 09:07:43;;;;;;;4.38;2.53;;;1.70;99.90;;;;;;4902301;29;20478;-64
2022/11/21 09:10:10;;;;;;;3.60;3.05;;;1.60;99.90;;;;;;4901373;29;20182;-64
2022/11/21 09:12:37;;;;;;;4.78;3.45;;;1.50;99.90;;;;;;4906120;29;20140;-73
2022/11/21 09:18:02;;;;;;;3.17;2.78;;;1.30;99.90;;;;;;4899572;29;20131;-68
2022/11/21 09:20:29;;;;;;;4.30;2.85;;;1.30;99.90;;;;;;4904464;29;20087;-66
2022/11/21 09:22:56;;;;;;;4.75;3.72;;;1.20;99.90;;;;;;4904136;29;20052;-66
2022/11/21 09:25:23;;;;;;;4.45;3.72;;;1.10;99.90;;;;;;4906516;29;20704;-64
2022/11/21 09:27:50;;;;;;;3.88;3.08;;;1.10;99.90;;;;;;4903765;29;20056;-70
2022/11/21 09:30:17;;;;;;;4.40;4.00;;;1.10;99.90;;;;;;4906748;29;20104;-65
2022/11/21 09:32:44;;;;;;;3.45;3.15;;;1.00;99.90;;;;;;4905219;29;20138;-67
2022/11/21 09:35:11;;;;;;;4.05;3.67;;;1.00;99.90;;;;;;4903012;29;20135;-67
2022/11/21 09:37:38;;;;;;;3.80;3.40;;;0.90;99.90;;;;;;4905692;29;20135;-66
2022/11/21 09:40:05;;;;;;;5.13;4.15;;;0.80;99.90;;;;;;4907608;29;20135;-69
2022/11/21 09:43:00;;;;;;;5.65;4.10;;;0.80;99.90;;;;;;4878662;29;20048;-67
2022/11/21 09:45:36;;;;;;;5.28;4.50;;;0.70;99.90;;;;;;4900769;29;20502;-65
2022/11/21 09:48:10;;;;;;;5.63;4.40;;;0.70;99.90;;;;;;4890548;29;20659;-65
2022/11/21 09:50:43;;;;;;;5.63;4.35;;;0.60;99.90;;;;;;4901567;29;20230;-66
2022/11/21 09:53:23;;;;;;;6.00;4.45;;;0.50;99.90;;;;;;4905589;29;20056;-69
2022/11/21 09:56:03;;;;;;;5.00;4.05;;;0.50;99.90;;;;;;4903628;29;20145;-64
2022/11/21 09:58:50;;;;;;;5.82;4.47;;;0.50;99.90;;;;;;4899391;29;20056;-69
2022/11/21 10:01:17;;;;;;;3.85;3.03;;;0.40;99.90;;;;;;4902916;29;20052;-65
2022/11/21 10:03:53;;;;;;;4.55;3.47;;;0.40;99.90;;;;;;4901630;29;20052;-65
2022/11/21 10:06:30;;;;;;;3.72;3.42;;;0.40;99.90;;;;;;4903197;29;20094;-69
2022/11/21 10:09:30;;;;;;;5.72;4.47;;;0.40;99.90;;;;;;4904693;29;20067;-65
2022/11/21 10:15:13;;;;;;;4.30;3.22;;;0.30;99.90;;;;;;4897136;29;20061;-64
2022/11/21 10:17:55;;;;;;;5.20;4.22;;;0.30;99.90;;;;;;4897782;29;20103;-65
2022/11/21 10:20:42;;;;;;;7.00;4.65;;;0.30;99.90;;;;;;4897611;29;20044;-67
2022/11/21 10:23:15;;;;;;;4.65;3.35;;;0.30;99.90;;;;;;4901615;29;20104;-64
2022/11/21 10:25:53;;;;;;;8.10;4.32;;;0.20;99.90;;;;;;4902853;29;20059;-64
2022/11/21 10:28:39;;;;;;;4.63;3.70;;;0.30;99.90;;;;;;4910195;29;20070;-72
2022/11/21 10:31:10;;;;;;;7.32;4.82;;;0.30;99.90;;;;;;4901137;29;20263;-66
2022/11/21 10:33:39;;;;;;;5.95;4.78;;;0.20;99.90;;;;;;4905934;29;20143;-66
2022/11/21 10:36:12;;;;;;;7.15;3.78;;;0.20;99.90;;;;;;4906063;29;20414;-67
2022/11/21 10:38:42;;;;;;;6.25;3.58;;;0.20;99.90;;;;;;4904396;29;20076;-69
2022/11/21 10:41:36;;;;;;;4.97;3.42;;;0.20;99.90;;;;;;4905090;29;20863;-65
2022/11/21 10:47:26;;;;;;;6.00;4.65;;;0.20;99.90;;;;;;4904001;29;20388;-64
2022/11/21 10:50:07;;;;;;;9.55;4.13;;;0.20;99.90;;;;;;4900992;29;20128;-65
2022/11/21 10:52:41;;;;;;;6.32;4.03;;;0.20;99.90;;;;;;4905589;29;20064;-68
2022/11/21 10:55:11;;;;;;;6.47;4.47;;;0.20;99.90;;;;;;4903646;29;20078;-67
2022/11/21 10:57:41;;;;;;;;;;;0.20;99.90;;;;;;4908149;29;20048;-65
2022/11/21 11:00:11;;;;;;;8.95;4.63;;;0.20;99.90;;;;;;4905152;29;19927;-67
2022/11/21 11:02:40;;;;;;;6.72;4.82;;;0.30;99.90;;;;;;4901143;29;20151;-67
2022/11/21 11:05:20;;;;;;;6.45;4.47;;;0.30;99.90;;;;;;4900604;29;20579;-70
2022/11/21 11:08:06;;;;;;;6.50;4.65;;;0.20;99.90;;;;;;4905609;29;20091;-64
2022/11/21 11:10:34;;;;;;;5.95;4.40;;;0.20;99.90;;;;;;4905977;29;20502;-65
2022/11/21 11:16:10;;;;;;;7.00;4.60;;;0.20;99.90;;;;;;4901729;29;20071;-65
2022/11/21 11:18:46;;;;;;;5.90;4.90;;;0.30;99.90;;;;;;4904845;29;20199;-64
2022/11/21 11:21:25;;;;;;;6.90;5.13;;;0.30;99.90;;;;;;4909600;29;20737;-64
2022/11/21 11:23:54;;;;;;;6.93;5.13;;;0.30;99.90;;;;;;4903058;29;20079;-64
2022/11/21 11:26:26;;;;;;;6.85;4.80;;;0.30;99.90;;;;;;4903100;29;20059;-64
2022/11/21 11:29:06;;;;;;;6.53;4.70;;;0.30;99.90;;;;;;4908665;29;20135;-65
2022/11/21 11:31:49;;;;;;;8.48;6.68;;;0.30;99.90;;;;;;4906957;29;20048;-66
2022/11/21 11:34:17;;;;;;;6.45;4.65;;;0.30;99.90;;;;;;4886981;29;20131;-68
2022/11/21 11:37:09;;;;;;;6.63;4.70;;;0.40;99.90;;;;;;4902436;29;20171;-64
2022/11/21 11:39:59;;;;;;;8.15;4.55;;;0.40;99.90;;;;;;4901647;29;20439;-68
2022/11/21 11:48:38;;;;;;;6.20;4.57;;;0.50;99.90;;;;;;4968968;28;20590;-64
2022/11/21 11:51:40;;;;;;;5.72;4.13;;;0.50;99.90;;;;;;5001616;28;20058;-67
2022/11/21 11:54:24;;;;;;;7.65;4.28;;;0.50;99.90;;;;;;5007280;28;20069;-65
2022/11/21 11:56:51;;;;;;;6.75;4.10;;;0.40;99.90;;;;;;5020653;28;20056;-65
2022/11/21 11:59:47;;;;;;;6.15;4.30;;;0.40;99.90;;;;;;5019042;28;20107;-63
2022/11/21 12:02:26;;;;;;;5.97;4.45;;;0.40;99.90;;;;;;5001223;28;20076;-67
2022/11/21 12:05:03;;;;;;;9.10;5.60;;;0.30;99.90;;;;;;4996613;28;20731;-66
2022/11/21 12:07:41;;;;;;;7.68;4.65;;;0.30;99.90;;;;;;4998140;28;20467;-69
2022/11/21 12:15:47;;;;;;;6.22;4.65;;;0.30;99.90;;;;;;4991806;28;20050;-67
2022/11/21 12:17:09;;;;;;;4.72;3.95;;;0.20;99.90;;;;;;4997343;28;20153;-69
2022/11/21 12:19:38;;;;;;;5.97;4.18;;;0.20;99.90;;;;;;4999153;28;20122;-70
2022/11/21 12:22:07;;;;;;;6.88;3.95;;;0.20;99.90;;;;;;5000783;28;20125;-64
2022/11/21 12:24:34;;;;;;;5.57;3.67;;;0.30;99.90;;;;;;5016527;28;20052;-64
2022/11/21 12:27:29;;;;;;;5.38;4.05;;;0.30;99.90;;;;;;5014013;28;20061;-66
2022/11/21 12:30:21;;;;;;;6.00;4.70;;;0.30;99.90;;;;;;4998186;28;20453;-65
2022/11/21 12:32:59;;;;;;;6.32;4.70;;;0.30;99.90;;;;;;4977987;28;20955;-66
2022/11/21 12:35:55;;;;;;;5.05;3.95;;;0.30;99.90;;;;;;5001673;28;20581;-65
2022/11/21 12:39:07;;;;;;;6.15;4.30;;;0.40;99.90;;;;;;5001254;28;20045;-69
2022/11/21 12:44:59;;;;;;;4.95;4.03;;;0.40;99.90;;;;;;5000793;28;20085;-71
2022/11/21 12:56:40;;;;;;;11.82;5.93;;;0.50;99.90;;;;;;4993537;28;20132;-64
2022/11/21 12:59:12;;;;;;;9.32;5.68;;;0.60;99.90;;;;;;4989457;28;20050;-67
2022/11/21 13:01:49;;;;;;;8.02;5.32;;;0.60;99.90;;;;;;4982804;28;20062;-66
2022/11/21 13:04:33;;;;;;;7.20;5.53;;;0.70;99.90;;;;;;4991228;28;20046;-65
2022/11/21 13:07:02;;;;;;;7.85;5.32;;;0.70;99.90;;;;;;4986860;28;20045;-68
2022/11/21 13:09:35;;;;;;;7.22;5.47;;;0.70;99.90;;;;;;4983271;28;20195;-66
2022/11/21 13:12:05;;;;;;;6.25;4.78;;;0.80;99.90;;;;;;4985704;28;20058;-67
2022/11/21 13:14:56;;;;;;;5.20;4.60;;;0.80;99.90;;;;;;4986813;28;20138;-64
2022/11/21 13:17:33;;;;;;;6.07;4.82;;;0.80;99.90;;;;;;4981171;28;20144;-66
2022/11/21 13:20:26;;;;;;;8.63;6.38;;;0.80;99.90;;;;;;4985873;28;20049;-67
2022/11/21 13:23:05;;;;;;;7.38;6.10;;;0.80;99.90;;;;;;4986150;28;20065;-65
2022/11/21 13:25:32;;;;;;;6.97;5.95;;;0.80;99.90;;;;;;4985351;28;20471;-68
2022/11/21 13:28:19;;;;;;;15.90;6.25;;;0.80;99.90;;;;;;4986807;28;20050;-66
2022/11/21 13:30:46;;;;;;;9.52;5.68;;;0.80;99.90;;;;;;4977990;28;20074;-67
2022/11/21 13:33:33;;;;;;;8.65;5.00;;;0.80;99.90;;;;;;4986018;28;20057;-67
2022/11/21 13:36:32;;;;;;;8.88;5.07;;;0.80;99.90;;;;;;4975782;28;20046;-66
2022/11/21 13:38:59;;;;;;;8.95;7.05;;;0.70;99.90;;;;;;4984904;28;20084;-65
2022/11/21 13:44:29;;;;;;;7.22;6.03;;;0.70;99.90;;;;;;4984745;28;20845;-64
2022/11/21 13:46:56;;;;;;;7.22;5.40;;;0.70;99.90;;;;;;4981499;28;20230;-65
2022/11/21 13:49:31;;;;;;;9.05;7.15;;;0.70;99.90;;;;;;4984637;28;20061;-64
2022/11/21 13:52:05;;;;;;;7.85;6.95;;;0.70;99.90;;;;;;4985670;28;20061;-65